sensor_id;sensor_type;location;lat;lon;timestamp;temperature;humidity
2409;DHT22;8463;48.094;7.970;2023-10-31T00:00:27;11.90;1.00
2409;DHT22;8463;48.094;7.970;2023-10-31T00:02:53;11.80;1.00
2409;DHT22;8463;48.094;7.970;2023-10-31T00:05:19;11.80;1.00
2409;DHT22;8463;48.094;7.970;2023-10-31T00:07:44;11.80;1.00
2409;DHT22;8463;48.094;7.970;2023-10-31T00:10:10;11.80;1.00
2409;DHT22;8463;48.094;7.970;2023-10-31T00:12:36;11.70;1.00
2409;DHT22;8463;48.094;7.970;2023-10-31T00:15:01;11.70;1.00
2409;DHT22;8463;48.094;7.970;2023-10-31T00:17:27;11.70;1.00
2409;DHT22;8463;48.094;7.970;2023-10-31T00:19:52;11.70;1.00
2409;DHT22;8463;48.094;7.970;2023-10-31T00:22:18;11.70;1.00
2409;DHT22;8463;48.094;7.970;2023-10-31T00:24:45;11.70;1.00
2409;DHT22;8463;48.094;7.970;2023-10-31T00:27:10;11.70;1.00
2409;DHT22;8463;48.094;7.970;2023-10-31T00:29:38;11.70;1.00
2409;DHT22;8463;48.094;7.970;2023-10-31T00:32:04;11.70;1.00
2409;DHT22;8463;48.094;7.970;2023-10-31T00:34:30;11.70;1.00
2409;DHT22;8463;48.094;7.970;2023-10-31T00:36:55;11.60;1.00
2409;DHT22;8463;48.094;7.970;2023-10-31T00:39:21;11.60;1.00
2409;DHT22;8463;48.094;7.970;2023-10-31T00:41:49;11.70;1.00
2409;DHT22;8463;48.094;7.970;2023-10-31T00:44:15;11.60;1.00
2409;DHT22;8463;48.094;7.970;2023-10-31T00:46:41;11.60;1.00
2409;DHT22;8463;48.094;7.970;2023-10-31T00:49:06;11.70;1.00
2409;DHT22;8463;48.094;7.970;2023-10-31T00:51:32;11.60;1.00
2409;DHT22;8463;48.094;7.970;2023-10-31T00:53:58;11.60;1.00
2409;DHT22;8463;48.094;7.970;2023-10-31T00:56:23;11.60;1.00
2409;DHT22;8463;48.094;7.970;2023-10-31T00:58:49;11.60;1.00
2409;DHT22;8463;48.094;7.970;2023-10-31T01:01:15;11.50;1.00
2409;DHT22;8463;48.094;7.970;2023-10-31T01:03:41;11.50;1.00
2409;DHT22;8463;48.094;7.970;2023-10-31T01:06:07;11.40;1.00
2409;DHT22;8463;48.094;7.970;2023-10-31T01:08:35;11.30;1.00
2409;DHT22;8463;48.094;7.970;2023-10-31T01:11:01;11.30;1.00
2409;DHT22;8463;48.094;7.970;2023-10-31T01:13:26;11.20;1.00
2409;DHT22;8463;48.094;7.970;2023-10-31T01:15:52;11.20;1.00
2409;DHT22;8463;48.094;7.970;2023-10-31T01:18:18;11.20;1.00
2409;DHT22;8463;48.094;7.970;2023-10-31T01:20:43;11.30;1.00
2409;DHT22;8463;48.094;7.970;2023-10-31T01:23:09;11.30;1.00
2409;DHT22;8463;48.094;7.970;2023-10-31T01:25:34;11.30;1.00
2409;DHT22;8463;48.094;7.970;2023-10-31T01:28:00;11.30;1.00
2409;DHT22;8463;48.094;7.970;2023-10-31T01:30:26;11.30;1.00
2409;DHT22;8463;48.094;7.970;2023-10-31T01:32:51;11.30;1.00
2409;DHT22;8463;48.094;7.970;2023-10-31T01:35:17;11.40;1.00
2409;DHT22;8463;48.094;7.970;2023-10-31T01:37:42;11.40;1.00
2409;DHT22;8463;48.094;7.970;2023-10-31T01:40:11;11.30;1.00
2409;DHT22;8463;48.094;7.970;2023-10-31T01:42:37;11.40;1.00
2409;DHT22;8463;48.094;7.970;2023-10-31T01:45:03;11.30;1.00
2409;DHT22;8463;48.094;7.970;2023-10-31T01:47:28;11.30;1.00
2409;DHT22;8463;48.094;7.970;2023-10-31T01:49:55;11.20;1.00
2409;DHT22;8463;48.094;7.970;2023-10-31T01:52:21;11.20;1.00
2409;DHT22;8463;48.094;7.970;2023-10-31T01:54:47;11.20;1.00
2409;DHT22;8463;48.094;7.970;2023-10-31T01:57:13;11.20;1.00
2409;DHT22;8463;48.094;7.970;2023-10-31T01:59:39;11.20;1.00
2409;DHT22;8463;48.094;7.970;2023-10-31T02:02:05;11.20;1.00
2409;DHT22;8463;48.094;7.970;2023-10-31T02:04:30;11.20;1.00
2409;DHT22;8463;48.094;7.970;2023-10-31T02:06:56;11.10;1.00
2409;DHT22;8463;48.094;7.970;2023-10-31T02:09:22;11.10;1.00
2409;DHT22;8463;48.094;7.970;2023-10-31T02:11:50;11.10;1.00
2409;DHT22;8463;48.094;7.970;2023-10-31T02:14:15;11.10;1.00
2409;DHT22;8463;48.094;7.970;2023-10-31T02:16:41;11.10;1.00
2409;DHT22;8463;48.094;7.970;2023-10-31T02:19:07;11.10;1.00
2409;DHT22;8463;48.094;7.970;2023-10-31T02:21:33;11.10;1.00
2409;DHT22;8463;48.094;7.970;2023-10-31T02:24:02;11.20;1.00
2409;DHT22;8463;48.094;7.970;2023-10-31T02:26:33;11.10;1.00
2409;DHT22;8463;48.094;7.970;2023-10-31T02:28:59;11.10;1.00
2409;DHT22;8463;48.094;7.970;2023-10-31T02:31:25;11.10;1.00
2409;DHT22;8463;48.094;7.970;2023-10-31T02:33:51;11.10;1.00
2409;DHT22;8463;48.094;7.970;2023-10-31T02:36:17;11.00;1.00
2409;DHT22;8463;48.094;7.970;2023-10-31T02:38:46;10.90;1.00
2409;DHT22;8463;48.094;7.970;2023-10-31T02:41:12;10.90;1.00
2409;DHT22;8463;48.094;7.970;2023-10-31T02:43:40;10.80;1.00
2409;DHT22;8463;48.094;7.970;2023-10-31T02:46:06;10.70;1.00
2409;DHT22;8463;48.094;7.970;2023-10-31T02:48:32;10.60;1.00
2409;DHT22;8463;48.094;7.970;2023-10-31T02:51:06;10.60;1.00
2409;DHT22;8463;48.094;7.970;2023-10-31T02:53:35;10.60;1.00
2409;DHT22;8463;48.094;7.970;2023-10-31T02:56:01;10.70;1.00
2409;DHT22;8463;48.094;7.970;2023-10-31T02:58:27;10.60;1.00
2409;DHT22;8463;48.094;7.970;2023-10-31T03:00:53;10.60;1.00
2409;DHT22;8463;48.094;7.970;2023-10-31T03:03:19;10.60;1.00
2409;DHT22;8463;48.094;7.970;2023-10-31T03:05:45;10.60;1.00
2409;DHT22;8463;48.094;7.970;2023-10-31T03:08:10;10.60;1.00
2409;DHT22;8463;48.094;7.970;2023-10-31T03:10:38;10.60;1.00
2409;DHT22;8463;48.094;7.970;2023-10-31T03:13:04;10.70;1.00
2409;DHT22;8463;48.094;7.970;2023-10-31T03:15:30;10.70;1.00
2409;DHT22;8463;48.094;7.970;2023-10-31T03:17:55;10.80;1.00
2409;DHT22;8463;48.094;7.970;2023-10-31T03:20:21;10.80;1.00
2409;DHT22;8463;48.094;7.970;2023-10-31T03:22:47;10.80;1.00
2409;DHT22;8463;48.094;7.970;2023-10-31T03:25:12;10.80;1.00
2409;DHT22;8463;48.094;7.970;2023-10-31T03:27:38;10.80;1.00
2409;DHT22;8463;48.094;7.970;2023-10-31T03:30:04;10.80;1.00
2409;DHT22;8463;48.094;7.970;2023-10-31T03:32:30;10.80;1.00
2409;DHT22;8463;48.094;7.970;2023-10-31T03:34:55;10.80;1.00
2409;DHT22;8463;48.094;7.970;2023-10-31T03:37:21;10.80;1.00
2409;DHT22;8463;48.094;7.970;2023-10-31T03:39:47;10.80;1.00
2409;DHT22;8463;48.094;7.970;2023-10-31T03:42:14;10.70;1.00
2409;DHT22;8463;48.094;7.970;2023-10-31T03:44:40;10.80;1.00
2409;DHT22;8463;48.094;7.970;2023-10-31T03:47:06;10.80;1.00
2409;DHT22;8463;48.094;7.970;2023-10-31T03:49:31;10.70;1.00
2409;DHT22;8463;48.094;7.970;2023-10-31T03:51:57;10.60;1.00
2409;DHT22;8463;48.094;7.970;2023-10-31T03:54:25;10.70;1.00
2409;DHT22;8463;48.094;7.970;2023-10-31T03:56:51;10.70;1.00
2409;DHT22;8463;48.094;7.970;2023-10-31T03:59:16;10.60;1.00
2409;DHT22;8463;48.094;7.970;2023-10-31T04:01:42;10.70;1.00
2409;DHT22;8463;48.094;7.970;2023-10-31T04:04:07;10.70;1.00
2409;DHT22;8463;48.094;7.970;2023-10-31T04:06:33;10.60;1.00
2409;DHT22;8463;48.094;7.970;2023-10-31T04:08:59;10.60;1.00
2409;DHT22;8463;48.094;7.970;2023-10-31T04:11:24;10.70;1.00
2409;DHT22;8463;48.094;7.970;2023-10-31T04:13:50;10.70;1.00
2409;DHT22;8463;48.094;7.970;2023-10-31T04:16:16;10.70;1.00
2409;DHT22;8463;48.094;7.970;2023-10-31T04:18:44;10.60;1.00
2409;DHT22;8463;48.094;7.970;2023-10-31T04:21:09;10.70;1.00
2409;DHT22;8463;48.094;7.970;2023-10-31T04:23:35;10.70;1.00
2409;DHT22;8463;48.094;7.970;2023-10-31T04:26:03;10.70;1.00
2409;DHT22;8463;48.094;7.970;2023-10-31T04:28:28;10.70;1.00
2409;DHT22;8463;48.094;7.970;2023-10-31T04:30:54;10.70;1.00
2409;DHT22;8463;48.094;7.970;2023-10-31T04:33:19;10.70;1.00
2409;DHT22;8463;48.094;7.970;2023-10-31T04:35:45;10.70;1.00
2409;DHT22;8463;48.094;7.970;2023-10-31T04:38:10;10.60;1.00
2409;DHT22;8463;48.094;7.970;2023-10-31T04:40:36;10.60;1.00
2409;DHT22;8463;48.094;7.970;2023-10-31T04:43:02;10.60;1.00
2409;DHT22;8463;48.094;7.970;2023-10-31T04:45:28;10.60;1.00
2409;DHT22;8463;48.094;7.970;2023-10-31T04:47:53;10.60;1.00
2409;DHT22;8463;48.094;7.970;2023-10-31T04:50:19;10.70;1.00
2409;DHT22;8463;48.094;7.970;2023-10-31T04:52:45;10.70;1.00
2409;DHT22;8463;48.094;7.970;2023-10-31T04:55:13;10.70;1.00
2409;DHT22;8463;48.094;7.970;2023-10-31T04:57:39;10.70;1.00
2409;DHT22;8463;48.094;7.970;2023-10-31T05:00:05;10.60;1.00
2409;DHT22;8463;48.094;7.970;2023-10-31T05:02:33;10.60;1.00
2409;DHT22;8463;48.094;7.970;2023-10-31T05:04:59;10.70;1.00
2409;DHT22;8463;48.094;7.970;2023-10-31T05:07:24;10.60;1.00
2409;DHT22;8463;48.094;7.970;2023-10-31T05:09:55;10.70;1.00
2409;DHT22;8463;48.094;7.970;2023-10-31T05:12:21;10.70;1.00
2409;DHT22;8463;48.094;7.970;2023-10-31T05:14:46;10.70;1.00
2409;DHT22;8463;48.094;7.970;2023-10-31T05:17:12;10.70;1.00
2409;DHT22;8463;48.094;7.970;2023-10-31T05:19:38;10.70;1.00
2409;DHT22;8463;48.094;7.970;2023-10-31T05:22:03;10.70;1.00
2409;DHT22;8463;48.094;7.970;2023-10-31T05:24:29;10.70;1.00
2409;DHT22;8463;48.094;7.970;2023-10-31T05:26:54;10.70;1.00
2409;DHT22;8463;48.094;7.970;2023-10-31T05:29:20;10.60;1.00
2409;DHT22;8463;48.094;7.970;2023-10-31T05:31:46;10.70;1.00
2409;DHT22;8463;48.094;7.970;2023-10-31T05:34:12;10.70;1.00
2409;DHT22;8463;48.094;7.970;2023-10-31T05:36:38;10.70;1.00
2409;DHT22;8463;48.094;7.970;2023-10-31T05:39:04;10.80;1.00
2409;DHT22;8463;48.094;7.970;2023-10-31T05:41:34;10.70;1.00
2409;DHT22;8463;48.094;7.970;2023-10-31T05:44:00;10.70;1.00
2409;DHT22;8463;48.094;7.970;2023-10-31T05:46:25;10.70;1.00
2409;DHT22;8463;48.094;7.970;2023-10-31T05:48:52;10.70;1.00
2409;DHT22;8463;48.094;7.970;2023-10-31T05:51:19;10.80;1.00
2409;DHT22;8463;48.094;7.970;2023-10-31T05:53:46;10.80;1.00
2409;DHT22;8463;48.094;7.970;2023-10-31T05:56:13;10.80;1.00
2409;DHT22;8463;48.094;7.970;2023-10-31T05:58:42;10.80;1.00
2409;DHT22;8463;48.094;7.970;2023-10-31T06:01:08;10.80;1.00
2409;DHT22;8463;48.094;7.970;2023-10-31T06:03:34;10.80;1.00
2409;DHT22;8463;48.094;7.970;2023-10-31T06:06:00;10.80;1.00
2409;DHT22;8463;48.094;7.970;2023-10-31T06:08:26;10.80;1.00
2409;DHT22;8463;48.094;7.970;2023-10-31T06:10:58;10.80;1.00
2409;DHT22;8463;48.094;7.970;2023-10-31T06:13:24;10.80;1.00
2409;DHT22;8463;48.094;7.970;2023-10-31T06:15:56;10.80;1.00
2409;DHT22;8463;48.094;7.970;2023-10-31T06:18:23;10.80;1.00
2409;DHT22;8463;48.094;7.970;2023-10-31T06:20:49;10.80;1.00
2409;DHT22;8463;48.094;7.970;2023-10-31T06:23:14;10.90;1.00
2409;DHT22;8463;48.094;7.970;2023-10-31T06:25:40;10.80;1.00
2409;DHT22;8463;48.094;7.970;2023-10-31T06:28:06;10.80;1.00
2409;DHT22;8463;48.094;7.970;2023-10-31T06:30:31;10.80;1.00
2409;DHT22;8463;48.094;7.970;2023-10-31T06:32:58;10.90;1.00
2409;DHT22;8463;48.094;7.970;2023-10-31T06:35:23;10.80;1.00
2409;DHT22;8463;48.094;7.970;2023-10-31T06:37:54;10.90;1.00
2409;DHT22;8463;48.094;7.970;2023-10-31T06:40:24;10.90;1.00
2409;DHT22;8463;48.094;7.970;2023-10-31T06:42:50;10.90;1.00
2409;DHT22;8463;48.094;7.970;2023-10-31T06:45:15;10.90;1.00
2409;DHT22;8463;48.094;7.970;2023-10-31T06:47:41;10.90;1.00
2409;DHT22;8463;48.094;7.970;2023-10-31T06:50:08;11.00;1.00
2409;DHT22;8463;48.094;7.970;2023-10-31T06:52:33;11.00;1.00
2409;DHT22;8463;48.094;7.970;2023-10-31T06:54:59;11.00;1.00
2409;DHT22;8463;48.094;7.970;2023-10-31T06:57:25;11.00;1.00
2409;DHT22;8463;48.094;7.970;2023-10-31T06:59:51;11.00;1.00
2409;DHT22;8463;48.094;7.970;2023-10-31T07:02:17;11.40;1.00
2409;DHT22;8463;48.094;7.970;2023-10-31T07:04:43;11.30;1.00
2409;DHT22;8463;48.094;7.970;2023-10-31T07:07:08;11.20;1.00
2409;DHT22;8463;48.094;7.970;2023-10-31T07:09:34;11.20;1.00
2409;DHT22;8463;48.094;7.970;2023-10-31T07:12:00;11.40;1.00
2409;DHT22;8463;48.094;7.970;2023-10-31T07:14:25;11.30;1.00
2409;DHT22;8463;48.094;7.970;2023-10-31T07:16:52;11.20;1.00
2409;DHT22;8463;48.094;7.970;2023-10-31T07:19:18;11.20;1.00
2409;DHT22;8463;48.094;7.970;2023-10-31T07:21:43;11.10;1.00
2409;DHT22;8463;48.094;7.970;2023-10-31T07:24:09;11.10;1.00
2409;DHT22;8463;48.094;7.970;2023-10-31T07:26:35;11.10;1.00
2409;DHT22;8463;48.094;7.970;2023-10-31T07:29:01;11.10;1.00
2409;DHT22;8463;48.094;7.970;2023-10-31T07:31:28;11.10;1.00
2409;DHT22;8463;48.094;7.970;2023-10-31T07:33:53;11.20;1.00
2409;DHT22;8463;48.094;7.970;2023-10-31T07:36:19;11.20;1.00
2409;DHT22;8463;48.094;7.970;2023-10-31T07:38:44;11.20;1.00
2409;DHT22;8463;48.094;7.970;2023-10-31T07:41:10;11.20;1.00
2409;DHT22;8463;48.094;7.970;2023-10-31T07:43:38;11.20;1.00
2409;DHT22;8463;48.094;7.970;2023-10-31T07:46:04;11.20;1.00
2409;DHT22;8463;48.094;7.970;2023-10-31T07:48:31;11.20;1.00
2409;DHT22;8463;48.094;7.970;2023-10-31T07:50:57;11.20;1.00
2409;DHT22;8463;48.094;7.970;2023-10-31T07:53:22;11.20;1.00
2409;DHT22;8463;48.094;7.970;2023-10-31T07:55:48;11.20;1.00
2409;DHT22;8463;48.094;7.970;2023-10-31T07:58:14;11.30;1.00
2409;DHT22;8463;48.094;7.970;2023-10-31T08:00:43;11.30;1.00
2409;DHT22;8463;48.094;7.970;2023-10-31T08:03:09;11.30;1.00
2409;DHT22;8463;48.094;7.970;2023-10-31T08:05:34;11.30;1.00
2409;DHT22;8463;48.094;7.970;2023-10-31T08:08:00;11.40;1.00
2409;DHT22;8463;48.094;7.970;2023-10-31T08:10:27;11.30;1.00
2409;DHT22;8463;48.094;7.970;2023-10-31T08:12:52;11.30;1.00
2409;DHT22;8463;48.094;7.970;2023-10-31T08:15:18;11.30;1.00
2409;DHT22;8463;48.094;7.970;2023-10-31T08:17:44;11.30;1.00
2409;DHT22;8463;48.094;7.970;2023-10-31T08:20:10;11.30;1.00
2409;DHT22;8463;48.094;7.970;2023-10-31T08:22:36;11.40;1.00
2409;DHT22;8463;48.094;7.970;2023-10-31T08:25:03;11.30;1.00
2409;DHT22;8463;48.094;7.970;2023-10-31T08:27:28;11.40;1.00
2409;DHT22;8463;48.094;7.970;2023-10-31T08:29:54;11.40;1.00
2409;DHT22;8463;48.094;7.970;2023-10-31T08:32:19;11.40;1.00
2409;DHT22;8463;48.094;7.970;2023-10-31T08:34:47;11.40;1.00
2409;DHT22;8463;48.094;7.970;2023-10-31T08:37:13;11.40;1.00
2409;DHT22;8463;48.094;7.970;2023-10-31T08:39:39;11.40;1.00
2409;DHT22;8463;48.094;7.970;2023-10-31T08:42:05;11.40;1.00
2409;DHT22;8463;48.094;7.970;2023-10-31T08:44:31;11.40;1.00
2409;DHT22;8463;48.094;7.970;2023-10-31T08:46:59;11.40;1.00
2409;DHT22;8463;48.094;7.970;2023-10-31T08:49:24;11.40;1.00
2409;DHT22;8463;48.094;7.970;2023-10-31T08:51:50;11.40;1.00
2409;DHT22;8463;48.094;7.970;2023-10-31T08:54:15;11.40;1.00
2409;DHT22;8463;48.094;7.970;2023-10-31T08:56:43;11.40;1.00
2409;DHT22;8463;48.094;7.970;2023-10-31T08:59:09;11.40;1.00
2409;DHT22;8463;48.094;7.970;2023-10-31T09:01:34;11.40;1.00
2409;DHT22;8463;48.094;7.970;2023-10-31T09:04:00;11.50;1.00
2409;DHT22;8463;48.094;7.970;2023-10-31T09:06:26;11.50;1.00
2409;DHT22;8463;48.094;7.970;2023-10-31T09:08:51;11.50;1.00
2409;DHT22;8463;48.094;7.970;2023-10-31T09:11:17;11.50;1.00
2409;DHT22;8463;48.094;7.970;2023-10-31T09:13:43;11.60;1.00
2409;DHT22;8463;48.094;7.970;2023-10-31T09:16:08;11.50;1.00
2409;DHT22;8463;48.094;7.970;2023-10-31T09:18:35;11.60;1.00
2409;DHT22;8463;48.094;7.970;2023-10-31T09:21:01;11.60;1.00
2409;DHT22;8463;48.094;7.970;2023-10-31T09:23:26;11.70;1.00
2409;DHT22;8463;48.094;7.970;2023-10-31T09:25:52;11.70;1.00
2409;DHT22;8463;48.094;7.970;2023-10-31T09:28:18;11.70;1.00
2409;DHT22;8463;48.094;7.970;2023-10-31T09:30:43;11.70;1.00
2409;DHT22;8463;48.094;7.970;2023-10-31T09:33:09;11.70;1.00
2409;DHT22;8463;48.094;7.970;2023-10-31T09:35:34;11.70;1.00
2409;DHT22;8463;48.094;7.970;2023-10-31T09:38:00;11.70;1.00
2409;DHT22;8463;48.094;7.970;2023-10-31T09:40:26;11.70;1.00
2409;DHT22;8463;48.094;7.970;2023-10-31T09:42:52;11.70;1.00
2409;DHT22;8463;48.094;7.970;2023-10-31T09:45:18;11.80;1.00
2409;DHT22;8463;48.094;7.970;2023-10-31T09:47:43;11.80;1.00
2409;DHT22;8463;48.094;7.970;2023-10-31T09:50:10;11.90;1.00
2409;DHT22;8463;48.094;7.970;2023-10-31T09:52:36;12.00;1.00
2409;DHT22;8463;48.094;7.970;2023-10-31T09:55:02;12.00;1.00
2409;DHT22;8463;48.094;7.970;2023-10-31T09:57:28;12.00;1.00
2409;DHT22;8463;48.094;7.970;2023-10-31T09:59:54;12.10;1.00
2409;DHT22;8463;48.094;7.970;2023-10-31T10:02:22;12.10;1.00
2409;DHT22;8463;48.094;7.970;2023-10-31T10:04:48;12.20;1.00
2409;DHT22;8463;48.094;7.970;2023-10-31T10:07:19;12.20;1.00
2409;DHT22;8463;48.094;7.970;2023-10-31T10:09:46;12.30;1.00
2409;DHT22;8463;48.094;7.970;2023-10-31T10:12:13;12.40;1.00
2409;DHT22;8463;48.094;7.970;2023-10-31T10:14:39;12.40;1.00
2409;DHT22;8463;48.094;7.970;2023-10-31T10:17:22;12.40;1.00
2409;DHT22;8463;48.094;7.970;2023-10-31T10:19:48;12.40;1.00
2409;DHT22;8463;48.094;7.970;2023-10-31T10:22:13;12.40;1.00
2409;DHT22;8463;48.094;7.970;2023-10-31T10:24:41;12.30;1.00
2409;DHT22;8463;48.094;7.970;2023-10-31T10:27:07;12.30;1.00
2409;DHT22;8463;48.094;7.970;2023-10-31T10:29:38;12.30;1.00
2409;DHT22;8463;48.094;7.970;2023-10-31T10:32:07;12.40;1.00
2409;DHT22;8463;48.094;7.970;2023-10-31T10:34:34;12.40;1.00
2409;DHT22;8463;48.094;7.970;2023-10-31T10:37:01;12.40;1.00
2409;DHT22;8463;48.094;7.970;2023-10-31T10:39:32;12.40;1.00
2409;DHT22;8463;48.094;7.970;2023-10-31T10:42:01;12.50;1.00
2409;DHT22;8463;48.094;7.970;2023-10-31T10:44:34;12.50;1.00
2409;DHT22;8463;48.094;7.970;2023-10-31T10:47:06;12.50;1.00
2409;DHT22;8463;48.094;7.970;2023-10-31T10:49:36;12.50;1.00
2409;DHT22;8463;48.094;7.970;2023-10-31T10:54:47;12.50;1.00
2409;DHT22;8463;48.094;7.970;2023-10-31T11:00:29;12.50;1.00
2409;DHT22;8463;48.094;7.970;2023-10-31T11:02:56;12.60;1.00
2409;DHT22;8463;48.094;7.970;2023-10-31T11:05:23;12.60;1.00
2409;DHT22;8463;48.094;7.970;2023-10-31T11:07:49;12.60;1.00
2409;DHT22;8463;48.094;7.970;2023-10-31T11:10:17;12.70;1.00
2409;DHT22;8463;48.094;7.970;2023-10-31T11:12:43;12.80;1.00
2409;DHT22;8463;48.094;7.970;2023-10-31T11:15:11;12.80;1.00
2409;DHT22;8463;48.094;7.970;2023-10-31T11:17:41;12.80;1.00
2409;DHT22;8463;48.094;7.970;2023-10-31T11:20:11;12.90;1.00
2409;DHT22;8463;48.094;7.970;2023-10-31T11:22:44;12.90;1.00
2409;DHT22;8463;48.094;7.970;2023-10-31T11:25:13;12.90;1.00
2409;DHT22;8463;48.094;7.970;2023-10-31T11:27:39;13.00;1.00
2409;DHT22;8463;48.094;7.970;2023-10-31T11:30:08;13.00;1.00
2409;DHT22;8463;48.094;7.970;2023-10-31T11:33:03;13.00;1.00
2409;DHT22;8463;48.094;7.970;2023-10-31T11:35:36;13.10;1.00
2409;DHT22;8463;48.094;7.970;2023-10-31T11:38:05;13.10;1.00
2409;DHT22;8463;48.094;7.970;2023-10-31T11:40:35;13.10;1.00
2409;DHT22;8463;48.094;7.970;2023-10-31T11:43:08;13.10;1.00
2409;DHT22;8463;48.094;7.970;2023-10-31T11:45:42;13.10;1.00
2409;DHT22;8463;48.094;7.970;2023-10-31T11:48:09;13.10;1.00
2409;DHT22;8463;48.094;7.970;2023-10-31T11:50:38;13.10;1.00
2409;DHT22;8463;48.094;7.970;2023-10-31T11:53:12;13.20;1.00
2409;DHT22;8463;48.094;7.970;2023-10-31T11:55:46;13.20;1.00
2409;DHT22;8463;48.094;7.970;2023-10-31T11:58:19;13.20;1.00
2409;DHT22;8463;48.094;7.970;2023-10-31T12:00:52;13.30;1.00
2409;DHT22;8463;48.094;7.970;2023-10-31T12:03:25;13.30;1.00
2409;DHT22;8463;48.094;7.970;2023-10-31T12:05:56;13.20;1.00
2409;DHT22;8463;48.094;7.970;2023-10-31T12:08:29;13.20;1.00
2409;DHT22;8463;48.094;7.970;2023-10-31T12:13:35;13.10;1.00
2409;DHT22;8463;48.094;7.970;2023-10-31T12:16:01;13.10;1.00
2409;DHT22;8463;48.094;7.970;2023-10-31T12:18:28;13.00;1.00
2409;DHT22;8463;48.094;7.970;2023-10-31T12:20:54;13.00;1.00
2409;DHT22;8463;48.094;7.970;2023-10-31T12:23:19;13.00;1.00
2409;DHT22;8463;48.094;7.970;2023-10-31T12:25:47;12.90;1.00
2409;DHT22;8463;48.094;7.970;2023-10-31T12:28:23;12.90;1.00
2409;DHT22;8463;48.094;7.970;2023-10-31T12:30:50;12.80;1.00
2409;DHT22;8463;48.094;7.970;2023-10-31T12:33:17;12.80;1.00
2409;DHT22;8463;48.094;7.970;2023-10-31T12:35:43;12.80;1.00
2409;DHT22;8463;48.094;7.970;2023-10-31T12:38:10;12.70;1.00
2409;DHT22;8463;48.094;7.970;2023-10-31T12:40:38;12.70;1.00
2409;DHT22;8463;48.094;7.970;2023-10-31T12:43:07;12.70;1.00
2409;DHT22;8463;48.094;7.970;2023-10-31T12:45:33;12.70;1.00
2409;DHT22;8463;48.094;7.970;2023-10-31T12:48:05;12.60;1.00
2409;DHT22;8463;48.094;7.970;2023-10-31T12:50:33;12.60;1.00
2409;DHT22;8463;48.094;7.970;2023-10-31T12:52:59;12.60;1.00
2409;DHT22;8463;48.094;7.970;2023-10-31T12:55:26;12.60;1.00
2409;DHT22;8463;48.094;7.970;2023-10-31T12:57:53;12.60;1.00
2409;DHT22;8463;48.094;7.970;2023-10-31T13:00:20;12.50;1.00
2409;DHT22;8463;48.094;7.970;2023-10-31T13:05:27;12.50;1.00
2409;DHT22;8463;48.094;7.970;2023-10-31T13:07:55;12.40;1.00
2409;DHT22;8463;48.094;7.970;2023-10-31T13:10:23;12.30;1.00
2409;DHT22;8463;48.094;7.970;2023-10-31T13:12:50;12.40;1.00
2409;DHT22;8463;48.094;7.970;2023-10-31T13:15:16;12.40;1.00
2409;DHT22;8463;48.094;7.970;2023-10-31T13:17:44;12.40;1.00
2409;DHT22;8463;48.094;7.970;2023-10-31T13:20:15;12.40;1.00
2409;DHT22;8463;48.094;7.970;2023-10-31T13:22:41;12.40;1.00
2409;DHT22;8463;48.094;7.970;2023-10-31T13:25:10;12.40;1.00
2409;DHT22;8463;48.094;7.970;2023-10-31T13:27:44;12.40;1.00
2409;DHT22;8463;48.094;7.970;2023-10-31T13:30:11;12.40;1.00
2409;DHT22;8463;48.094;7.970;2023-10-31T13:32:37;12.30;1.00
2409;DHT22;8463;48.094;7.970;2023-10-31T13:35:04;12.20;1.00
2409;DHT22;8463;48.094;7.970;2023-10-31T13:37:30;12.10;1.00
2409;DHT22;8463;48.094;7.970;2023-10-31T13:39:58;12.10;1.00
2409;DHT22;8463;48.094;7.970;2023-10-31T13:42:23;12.10;1.00
2409;DHT22;8463;48.094;7.970;2023-10-31T13:44:51;12.00;1.00
2409;DHT22;8463;48.094;7.970;2023-10-31T13:47:16;12.00;1.00
2409;DHT22;8463;48.094;7.970;2023-10-31T13:49:42;12.00;1.00
2409;DHT22;8463;48.094;7.970;2023-10-31T13:52:08;11.90;1.00
2409;DHT22;8463;48.094;7.970;2023-10-31T13:54:36;12.00;1.00
2409;DHT22;8463;48.094;7.970;2023-10-31T13:57:01;11.90;1.00
2409;DHT22;8463;48.094;7.970;2023-10-31T13:59:27;12.00;1.00
2409;DHT22;8463;48.094;7.970;2023-10-31T14:01:53;12.00;1.00
2409;DHT22;8463;48.094;7.970;2023-10-31T14:04:19;12.00;1.00
2409;DHT22;8463;48.094;7.970;2023-10-31T14:06:45;12.00;1.00
2409;DHT22;8463;48.094;7.970;2023-10-31T14:09:12;12.00;1.00
2409;DHT22;8463;48.094;7.970;2023-10-31T14:11:38;12.00;1.00
2409;DHT22;8463;48.094;7.970;2023-10-31T14:14:05;12.10;1.00
2409;DHT22;8463;48.094;7.970;2023-10-31T14:16:36;12.10;1.00
2409;DHT22;8463;48.094;7.970;2023-10-31T14:19:03;12.10;1.00
2409;DHT22;8463;48.094;7.970;2023-10-31T14:21:29;12.10;1.00
2409;DHT22;8463;48.094;7.970;2023-10-31T14:23:55;12.10;1.00
2409;DHT22;8463;48.094;7.970;2023-10-31T14:26:23;12.10;1.00
2409;DHT22;8463;48.094;7.970;2023-10-31T14:28:49;12.10;1.00
2409;DHT22;8463;48.094;7.970;2023-10-31T14:31:16;12.20;1.00
2409;DHT22;8463;48.094;7.970;2023-10-31T14:33:42;12.10;1.00
2409;DHT22;8463;48.094;7.970;2023-10-31T14:36:09;12.10;1.00
2409;DHT22;8463;48.094;7.970;2023-10-31T14:38:37;12.10;1.00
2409;DHT22;8463;48.094;7.970;2023-10-31T14:41:02;12.10;1.00
2409;DHT22;8463;48.094;7.970;2023-10-31T14:43:29;12.20;1.00
2409;DHT22;8463;48.094;7.970;2023-10-31T14:45:55;12.20;1.00
2409;DHT22;8463;48.094;7.970;2023-10-31T14:48:21;12.20;1.00
2409;DHT22;8463;48.094;7.970;2023-10-31T14:50:47;12.20;1.00
2409;DHT22;8463;48.094;7.970;2023-10-31T14:53:16;12.20;1.00
2409;DHT22;8463;48.094;7.970;2023-10-31T14:55:43;12.20;1.00
2409;DHT22;8463;48.094;7.970;2023-10-31T14:58:09;12.30;1.00
2409;DHT22;8463;48.094;7.970;2023-10-31T15:00:35;12.30;1.00
2409;DHT22;8463;48.094;7.970;2023-10-31T15:03:00;12.20;1.00
2409;DHT22;8463;48.094;7.970;2023-10-31T15:05:26;12.30;1.00
2409;DHT22;8463;48.094;7.970;2023-10-31T15:07:52;12.30;1.00
2409;DHT22;8463;48.094;7.970;2023-10-31T15:10:18;12.30;1.00
2409;DHT22;8463;48.094;7.970;2023-10-31T15:12:48;12.30;1.00
2409;DHT22;8463;48.094;7.970;2023-10-31T15:15:15;12.30;1.00
2409;DHT22;8463;48.094;7.970;2023-10-31T15:17:41;12.30;1.00
2409;DHT22;8463;48.094;7.970;2023-10-31T15:20:07;12.30;1.00
2409;DHT22;8463;48.094;7.970;2023-10-31T15:22:36;12.30;1.00
2409;DHT22;8463;48.094;7.970;2023-10-31T15:25:02;13.50;1.00
2409;DHT22;8463;48.094;7.970;2023-10-31T15:27:28;12.30;1.00
2409;DHT22;8463;48.094;7.970;2023-10-31T15:29:54;12.30;1.00
2409;DHT22;8463;48.094;7.970;2023-10-31T15:32:22;12.30;1.00
2409;DHT22;8463;48.094;7.970;2023-10-31T15:34:48;12.30;1.00
2409;DHT22;8463;48.094;7.970;2023-10-31T15:37:14;12.30;1.00
2409;DHT22;8463;48.094;7.970;2023-10-31T15:39:40;12.30;1.00
2409;DHT22;8463;48.094;7.970;2023-10-31T15:42:06;12.30;1.00
2409;DHT22;8463;48.094;7.970;2023-10-31T15:44:32;12.30;1.00
2409;DHT22;8463;48.094;7.970;2023-10-31T15:46:58;12.30;1.00
2409;DHT22;8463;48.094;7.970;2023-10-31T15:49:23;12.30;1.00
2409;DHT22;8463;48.094;7.970;2023-10-31T15:51:52;12.30;1.00
2409;DHT22;8463;48.094;7.970;2023-10-31T15:54:17;12.30;1.00
2409;DHT22;8463;48.094;7.970;2023-10-31T15:56:43;12.30;1.00
2409;DHT22;8463;48.094;7.970;2023-10-31T15:59:08;12.20;1.00
2409;DHT22;8463;48.094;7.970;2023-10-31T16:01:34;12.20;1.00
2409;DHT22;8463;48.094;7.970;2023-10-31T16:04:00;12.20;1.00
2409;DHT22;8463;48.094;7.970;2023-10-31T16:06:25;12.20;1.00
2409;DHT22;8463;48.094;7.970;2023-10-31T16:08:51;12.20;1.00
2409;DHT22;8463;48.094;7.970;2023-10-31T16:11:17;12.20;1.00
2409;DHT22;8463;48.094;7.970;2023-10-31T16:13:42;12.20;1.00
2409;DHT22;8463;48.094;7.970;2023-10-31T16:16:12;12.20;1.00
2409;DHT22;8463;48.094;7.970;2023-10-31T16:18:38;12.20;1.00
2409;DHT22;8463;48.094;7.970;2023-10-31T16:21:04;12.20;1.00
2409;DHT22;8463;48.094;7.970;2023-10-31T16:23:33;12.20;1.00